Time;durP1;ratioP1;P1;durP2;ratioP2;P2;SDS_P1;SDS_P2;PMS_P1;PMS_P2;Temp;Humidity;BMP_temperature;BMP_pressure;BME280_temperature;BME280_humidity;BME280_pressure;Samples;Min_cycle;Max_cycle;Signal;HPM_P1;HPM_P2
2022/05/06 00:01:00;;;;;;;4.97;2.77;;;10.20;99.90;;;;;;5033653;28;20427;-70
2022/05/06 00:03:26;;;;;;;3.13;2.83;;;10.10;99.90;;;;;;5033599;28;20173;-70
2022/05/06 00:05:51;;;;;;;4.33;3.03;;;10.10;99.90;;;;;;5033549;28;20160;-70
2022/05/06 00:08:17;;;;;;;4.00;2.97;;;10.00;99.90;;;;;;5033837;28;20405;-70
2022/05/06 00:10:43;;;;;;;4.50;2.60;;;10.00;99.90;;;;;;5032796;28;20224;-70
2022/05/06 00:13:09;;;;;;;2.50;2.30;;;10.00;99.90;;;;;;5033300;28;20412;-69
2022/05/06 00:15:35;;;;;;;3.27;2.63;;;9.90;99.90;;;;;;5033223;28;20168;-69
2022/05/06 00:18:00;;;;;;;2.17;1.97;;;9.80;99.90;;;;;;5033453;28;20172;-70
2022/05/06 00:20:26;;;;;;;4.73;2.57;;;9.80;99.90;;;;;;5033308;28;20403;-70
2022/05/06 00:22:51;;;;;;;2.63;2.40;;;9.70;99.90;;;;;;5033153;28;20183;-70
2022/05/06 00:25:17;;;;;;;3.03;2.73;;;9.70;99.90;;;;;;5033122;28;20585;-70
2022/05/06 00:27:42;;;;;;;4.23;2.63;;;9.70;99.90;;;;;;5033181;28;20177;-70
2022/05/06 00:30:09;;;;;;;2.80;2.30;;;9.60;99.90;;;;;;5033132;28;20170;-70
2022/05/06 00:32:35;;;;;;;3.27;2.43;;;9.60;99.90;;;;;;5031800;28;20629;-70
2022/05/06 00:35:00;;;;;;;2.53;2.33;;;9.50;99.90;;;;;;5033020;28;20446;-70
2022/05/06 00:37:26;;;;;;;2.53;2.33;;;9.50;99.90;;;;;;5033699;28;20202;-70
2022/05/06 00:39:51;;;;;;;2.93;2.50;;;9.50;99.90;;;;;;5016286;28;20539;-69
2022/05/06 00:42:17;;;;;;;3.00;2.80;;;9.50;99.90;;;;;;5033634;28;20193;-70
2022/05/06 00:44:43;;;;;;;2.73;2.53;;;9.50;99.90;;;;;;5032810;28;20172;-70
2022/05/06 00:47:09;;;;;;;2.43;2.27;;;9.50;99.90;;;;;;5033139;28;20924;-70
2022/05/06 00:49:36;;;;;;;3.17;2.83;;;9.50;99.90;;;;;;5033178;28;20801;-70
2022/05/06 00:52:05;;;;;;;5.70;2.40;;;9.40;99.90;;;;;;5032632;28;20810;-71
2022/05/06 00:54:37;;;;;;;3.07;2.63;;;9.40;99.90;;;;;;5032572;28;20437;-70
2022/05/06 00:57:03;;;;;;;2.80;2.60;;;9.30;99.90;;;;;;5032665;28;20454;-70
2022/05/06 00:59:28;;;;;;;2.63;2.37;;;9.30;99.90;;;;;;5032533;28;20740;-70
2022/05/06 01:01:53;;;;;;;2.50;2.30;;;9.30;99.90;;;;;;5032457;28;20438;-70
2022/05/06 01:04:19;;;;;;;3.20;2.70;;;9.30;99.90;;;;;;5032505;28;20245;-70
2022/05/06 01:06:46;;;;;;;3.00;2.30;;;9.20;99.90;;;;;;5032456;28;20176;-70
2022/05/06 01:09:16;;;;;;;4.07;2.87;;;9.20;99.90;;;;;;5032431;28;20168;-70
2022/05/06 01:11:43;;;;;;;3.63;2.90;;;9.20;99.90;;;;;;5032623;28;20422;-70
2022/05/06 01:14:09;;;;;;;3.73;2.53;;;9.20;99.90;;;;;;5032240;28;20422;-70
2022/05/06 01:16:35;;;;;;;7.07;2.70;;;9.20;99.90;;;;;;5032426;28;20513;-71
2022/05/06 01:19:02;;;;;;;5.67;2.97;;;9.20;99.90;;;;;;5032303;28;20414;-70
2022/05/06 01:21:34;;;;;;;2.80;2.60;;;9.20;99.90;;;;;;5031751;28;20480;-70
2022/05/06 01:24:02;;;;;;;2.67;2.47;;;9.10;99.90;;;;;;5031932;28;20438;-70
2022/05/06 01:26:54;;;;;;;3.87;3.30;;;9.20;99.90;;;;;;5032115;28;20785;-71
2022/05/06 01:29:22;;;;;;;5.20;3.70;;;9.10;99.90;;;;;;5032306;28;20418;-71
2022/05/06 01:31:49;;;;;;;3.53;3.20;;;9.10;99.90;;;;;;5032079;28;20426;-69
2022/05/06 01:34:16;;;;;;;3.97;3.13;;;9.10;99.90;;;;;;5033004;28;20445;-71
2022/05/06 01:36:43;;;;;;;3.03;2.83;;;9.10;99.90;;;;;;5032210;28;20512;-71
2022/05/06 01:39:11;;;;;;;4.13;3.20;;;9.10;99.90;;;;;;5013786;28;20473;-69
2022/05/06 01:41:38;;;;;;;3.30;2.90;;;9.10;99.90;;;;;;5030282;28;20870;-69
2022/05/06 01:44:07;;;;;;;3.00;2.60;;;9.10;99.90;;;;;;5031536;28;20896;-70
2022/05/06 01:46:35;;;;;;;4.00;3.50;;;9.10;99.90;;;;;;5031525;28;20411;-70
2022/05/06 01:49:02;;;;;;;8.73;3.93;;;9.10;99.90;;;;;;5031564;28;20406;-69
2022/05/06 01:51:29;;;;;;;3.33;3.03;;;9.00;99.90;;;;;;5031893;28;20947;-70
2022/05/06 01:53:55;;;;;;;3.63;3.03;;;9.00;99.90;;;;;;5031734;28;20410;-70
2022/05/06 01:56:21;;;;;;;3.67;3.17;;;9.10;99.90;;;;;;5031961;28;20991;-70
2022/05/06 01:58:47;;;;;;;3.33;3.10;;;9.10;99.90;;;;;;5032200;28;20291;-70
2022/05/06 02:01:14;;;;;;;3.60;3.07;;;9.00;99.90;;;;;;5032990;28;20426;-70
2022/05/06 02:06:24;;;;;;;4.10;2.80;;;9.00;99.90;;;;;;5032213;28;20452;-71
2022/05/06 02:08:49;;;;;;;4.73;3.20;;;9.00;99.90;;;;;;5031680;28;20415;-70
2022/05/06 02:11:15;;;;;;;4.50;4.10;;;9.00;99.90;;;;;;5031287;28;20665;-71
2022/05/06 02:13:40;;;;;;;4.17;3.77;;;8.90;99.90;;;;;;5031238;28;20185;-69
2022/05/06 02:16:06;;;;;;;3.47;3.17;;;8.90;99.90;;;;;;5030998;28;20599;-70
2022/05/06 02:18:32;;;;;;;5.93;3.60;;;8.90;99.90;;;;;;5031225;28;20176;-71
2022/05/06 02:20:58;;;;;;;4.83;3.17;;;9.00;99.90;;;;;;5030967;28;20441;-70
2022/05/06 02:23:24;;;;;;;5.87;3.57;;;9.20;99.90;;;;;;5030887;28;20173;-70
2022/05/06 02:25:50;;;;;;;3.73;3.40;;;9.20;99.90;;;;;;5031113;28;20434;-70
2022/05/06 02:28:16;;;;;;;4.20;3.40;;;9.10;99.90;;;;;;5031136;28;20446;-70
2022/05/06 02:33:26;;;;;;;3.23;2.90;;;9.00;99.90;;;;;;5032085;28;20634;-71
2022/05/06 02:35:53;;;;;;;5.50;3.13;;;9.00;99.90;;;;;;5034788;28;20414;-69
2022/05/06 02:38:21;;;;;;;6.33;4.00;;;8.90;99.90;;;;;;5034946;28;20414;-71
2022/05/06 02:40:49;;;;;;;3.90;3.50;;;8.90;99.90;;;;;;5034927;28;20832;-70
2022/05/06 02:43:14;;;;;;;4.40;3.17;;;8.80;99.90;;;;;;5035394;28;20501;-70
2022/05/06 02:45:41;;;;;;;3.97;3.53;;;8.80;99.90;;;;;;5035037;28;20497;-70
2022/05/06 02:48:07;;;;;;;3.93;3.40;;;8.80;99.90;;;;;;5034906;28;20199;-70
2022/05/06 02:50:32;;;;;;;8.47;3.73;;;8.90;99.90;;;;;;5034911;28;20758;-70
2022/05/06 02:52:58;;;;;;;4.20;3.30;;;9.00;99.90;;;;;;5034828;28;20436;-71
2022/05/06 02:55:23;;;;;;;4.27;3.30;;;9.00;99.90;;;;;;5034816;28;20191;-70
2022/05/06 02:57:52;;;;;;;3.43;3.13;;;9.00;99.90;;;;;;5034669;28;20206;-71
2022/05/06 03:00:18;;;;;;;3.60;3.30;;;8.90;99.90;;;;;;5016735;28;20183;-70
2022/05/06 03:02:44;;;;;;;4.03;3.63;;;9.00;99.90;;;;;;5034496;28;20434;-70
2022/05/06 03:05:10;;;;;;;4.13;3.40;;;8.90;99.90;;;;;;5034291;28;20476;-70
2022/05/06 03:07:36;;;;;;;4.07;3.60;;;8.90;99.90;;;;;;5034415;28;20183;-70
2022/05/06 03:10:03;;;;;;;4.33;3.27;;;8.80;99.90;;;;;;5034426;28;20494;-71
2022/05/06 03:12:30;;;;;;;4.33;4.03;;;8.80;99.90;;;;;;5034659;28;20583;-70
2022/05/06 03:14:56;;;;;;;3.83;3.20;;;8.80;99.90;;;;;;5034588;28;20406;-69
2022/05/06 03:17:22;;;;;;;4.83;3.87;;;8.80;99.90;;;;;;5034176;28;21052;-70
2022/05/06 03:19:47;;;;;;;6.10;3.83;;;8.70;99.90;;;;;;5034142;28;20168;-69
2022/05/06 03:22:15;;;;;;;4.07;3.67;;;8.70;99.90;;;;;;5034456;28;20184;-70
2022/05/06 03:24:42;;;;;;;4.47;3.27;;;8.70;99.90;;;;;;5034039;28;20179;-70
2022/05/06 03:27:59;;;;;;;3.67;3.30;;;8.70;99.90;;;;;;5034340;28;20417;-70
2022/05/06 03:29:53;;;;;;;4.83;3.70;;;8.70;99.90;;;;;;5034125;28;20964;-70
2022/05/06 03:32:19;;;;;;;4.77;3.90;;;8.70;99.90;;;;;;5033865;28;20509;-70
2022/05/06 03:34:44;;;;;;;5.07;3.93;;;8.70;99.90;;;;;;5033695;28;20172;-70
2022/05/06 03:37:10;;;;;;;4.67;3.80;;;8.70;99.90;;;;;;5033951;28;20454;-69
2022/05/06 03:39:35;;;;;;;3.80;3.43;;;8.70;99.90;;;;;;5034042;28;20176;-69
2022/05/06 03:42:01;;;;;;;4.03;3.17;;;8.70;99.90;;;;;;5016189;28;20192;-70
2022/05/06 03:44:27;;;;;;;4.67;4.20;;;8.90;99.90;;;;;;5033369;28;20202;-69
2022/05/06 03:46:52;;;;;;;4.93;4.53;;;9.10;99.90;;;;;;5033233;28;20164;-70
2022/05/06 03:49:17;;;;;;;4.30;3.87;;;9.30;99.90;;;;;;5034001;28;20203;-70
2022/05/06 03:51:47;;;;;;;5.23;3.30;;;9.20;99.90;;;;;;5034073;28;20215;-70
2022/05/06 03:54:12;;;;;;;4.60;3.37;;;9.20;99.90;;;;;;5034123;28;20237;-69
2022/05/06 03:56:38;;;;;;;4.97;4.47;;;9.20;99.90;;;;;;5033871;28;20453;-72
2022/05/06 03:59:03;;;;;;;5.93;4.30;;;9.20;99.90;;;;;;5035034;28;20171;-70
2022/05/06 04:01:29;;;;;;;6.40;4.23;;;9.20;99.90;;;;;;5034821;28;20560;-69
2022/05/06 04:03:54;;;;;;;4.23;3.40;;;9.20;99.90;;;;;;5033604;28;20163;-69
2022/05/06 04:06:20;;;;;;;7.20;4.33;;;9.30;99.90;;;;;;5033550;28;20729;-69
2022/05/06 04:08:46;;;;;;;6.33;4.73;;;9.30;99.90;;;;;;5034253;28;20171;-69
2022/05/06 04:11:12;;;;;;;5.20;3.63;;;9.30;99.90;;;;;;5034048;28;20192;-69
2022/05/06 04:13:38;;;;;;;4.13;3.70;;;9.30;99.90;;;;;;5034126;28;20380;-71
2022/05/06 04:16:04;;;;;;;4.60;3.50;;;9.30;99.90;;;;;;5033310;28;20462;-69
2022/05/06 04:18:30;;;;;;;6.27;3.77;;;9.30;99.90;;;;;;5033225;28;20654;-69
2022/05/06 04:23:40;;;;;;;7.27;3.60;;;9.50;99.90;;;;;;5033031;28;20410;-69
2022/05/06 04:26:07;;;;;;;10.83;4.40;;;9.50;99.90;;;;;;5033202;28;20817;-69
2022/05/06 04:28:34;;;;;;;6.73;4.10;;;9.50;99.90;;;;;;5033115;28;20250;-69
2022/05/06 04:31:00;;;;;;;3.77;3.47;;;9.70;99.90;;;;;;5032917;28;20790;-69
2022/05/06 04:33:27;;;;;;;5.53;3.83;;;9.70;99.90;;;;;;5033064;28;20418;-70
2022/05/06 04:35:56;;;;;;;6.07;4.77;;;9.80;99.90;;;;;;5033012;28;20506;-69
2022/05/06 04:38:25;;;;;;;6.80;4.27;;;9.90;99.90;;;;;;5022335;28;20795;-69
2022/05/06 04:40:54;;;;;;;5.53;3.50;;;9.90;99.90;;;;;;5018906;28;20449;-70
2022/05/06 04:43:20;;;;;;;8.30;6.53;;;10.00;99.90;;;;;;5012875;28;20423;-69
2022/05/06 04:45:47;;;;;;;4.20;3.60;;;10.10;99.90;;;;;;5013903;28;20417;-69
2022/05/06 04:48:13;;;;;;;6.93;5.07;;;10.20;99.90;;;;;;5012832;28;20439;-69
2022/05/06 04:50:40;;;;;;;5.80;4.43;;;10.30;99.90;;;;;;5012902;28;20455;-69
2022/05/06 04:53:09;;;;;;;4.50;3.70;;;10.30;99.90;;;;;;5017241;28;20502;-70
2022/05/06 04:55:38;;;;;;;4.37;3.83;;;10.40;99.90;;;;;;5032233;28;20422;-69
2022/05/06 04:58:05;;;;;;;4.27;3.87;;;10.50;99.90;;;;;;5032441;28;20493;-69
2022/05/06 05:00:31;;;;;;;5.13;4.00;;;10.60;99.90;;;;;;5032455;28;20410;-70
2022/05/06 05:02:58;;;;;;;10.23;6.37;;;10.60;99.90;;;;;;5032283;28;20445;-70
2022/05/06 05:05:24;;;;;;;5.13;4.63;;;10.70;99.90;;;;;;5032527;28;20410;-70
2022/05/06 05:07:50;;;;;;;5.43;3.20;;;10.80;99.90;;;;;;5032721;28;20410;-69
2022/05/06 05:10:15;;;;;;;5.03;3.67;;;11.00;99.90;;;;;;5033595;28;20414;-69
2022/05/06 05:12:41;;;;;;;5.57;3.87;;;11.30;99.90;;;;;;5032731;28;20438;-69
2022/05/06 05:15:07;;;;;;;3.50;3.20;;;12.10;99.90;;;;;;5032354;28;20175;-69
2022/05/06 05:17:32;;;;;;;8.00;4.10;;;12.60;99.90;;;;;;5033211;28;20226;-69
2022/05/06 05:19:58;;;;;;;5.80;3.40;;;13.30;99.90;;;;;;5034068;28;20500;-70
2022/05/06 05:22:23;;;;;;;4.03;3.13;;;13.70;99.90;;;;;;5049607;28;20657;-71
2022/05/06 05:24:49;;;;;;;6.63;3.43;;;13.60;99.90;;;;;;5034266;28;20167;-71
2022/05/06 05:27:16;;;;;;;4.37;3.17;;;13.70;99.90;;;;;;5033177;28;20174;-70
2022/05/06 05:29:42;;;;;;;5.93;4.60;;;15.00;99.90;;;;;;5032343;28;20927;-70
2022/05/06 05:32:08;;;;;;;5.00;4.07;;;15.20;99.90;;;;;;5032202;28;20767;-71
2022/05/06 05:34:35;;;;;;;5.80;3.37;;;15.30;99.90;;;;;;5032190;28;20417;-70
2022/05/06 05:37:00;;;;;;;3.50;3.00;;;15.20;99.90;;;;;;5032406;28;20825;-70
2022/05/06 05:39:26;;;;;;;5.60;3.80;;;14.50;99.90;;;;;;5032367;28;20423;-70
2022/05/06 05:41:52;;;;;;;4.00;3.03;;;15.20;99.90;;;;;;5032660;28;20190;-70
2022/05/06 05:49:46;;;;;;;6.43;3.27;;;17.00;99.90;;;;;;4998569;28;20442;-71
2022/05/06 05:52:11;;;;;;;3.90;3.00;;;17.10;99.90;;;;;;5051128;23;20476;-71
2022/05/06 05:54:38;;;;;;;3.90;3.27;;;17.10;99.90;;;;;;5063203;28;20172;-71
2022/05/06 05:57:04;;;;;;;6.77;3.23;;;17.50;99.90;;;;;;5071638;28;20721;-71
2022/05/06 05:59:30;;;;;;;7.37;3.90;;;17.90;99.90;;;;;;5071915;28;20417;-70
2022/05/06 06:01:56;;;;;;;3.67;3.07;;;17.80;99.90;;;;;;5071508;28;20421;-70
2022/05/06 06:04:21;;;;;;;2.57;2.20;;;17.90;99.90;;;;;;5071467;28;20602;-72
2022/05/06 06:06:47;;;;;;;4.13;2.70;;;18.30;99.90;;;;;;5071603;28;20437;-71
2022/05/06 06:09:12;;;;;;;4.73;2.93;;;17.30;99.90;;;;;;5073856;28;20173;-71
2022/05/06 06:11:38;;;;;;;4.30;3.27;;;19.00;99.90;;;;;;5073356;28;20430;-71
2022/05/06 06:14:03;;;;;;;4.40;3.50;;;19.00;99.90;;;;;;5055747;28;20264;-71
2022/05/06 06:16:29;;;;;;;3.47;2.93;;;19.10;99.90;;;;;;5055291;28;20670;-70
2022/05/06 06:18:58;;;;;;;5.33;3.60;;;17.90;99.90;;;;;;5055538;28;20179;-71
2022/05/06 06:21:24;;;;;;;5.77;2.90;;;19.10;99.90;;;;;;5037450;28;20196;-71
2022/05/06 06:23:49;;;;;;;3.67;2.83;;;18.60;99.90;;;;;;5055493;28;20435;-71
2022/05/06 06:26:15;;;;;;;3.23;2.87;;;19.50;99.70;;;;;;5091827;28;21037;-71
2022/05/06 06:28:40;;;;;;;4.77;3.47;;;20.60;99.20;;;;;;5095530;28;20576;-70
2022/05/06 06:31:05;;;;;;;5.47;3.10;;;20.70;97.40;;;;;;5095239;28;20168;-70
2022/05/06 06:33:32;;;;;;;3.37;2.70;;;21.00;95.80;;;;;;5075078;28;20181;-72
2022/05/06 06:35:57;;;;;;;4.93;2.80;;;19.90;96.50;;;;;;5074963;28;20215;-70
2022/05/06 06:38:24;;;;;;;5.23;3.30;;;20.20;98.60;;;;;;5074827;28;20421;-70
2022/05/06 06:40:50;;;;;;;3.40;3.00;;;20.00;96.60;;;;;;5074998;28;20637;-71
2022/05/06 06:43:15;;;;;;;3.33;2.83;;;20.20;96.10;;;;;;5074859;28;20424;-72
2022/05/06 06:45:40;;;;;;;4.60;3.20;;;20.00;98.80;;;;;;5079880;28;20172;-73
2022/05/06 06:48:06;;;;;;;5.03;3.43;;;21.20;96.30;;;;;;5074996;28;20167;-71
2022/05/06 06:50:32;;;;;;;3.70;2.50;;;20.90;96.10;;;;;;5057029;28;20185;-71
2022/05/06 06:52:58;;;;;;;5.57;3.07;;;22.00;94.80;;;;;;5074757;28;20207;-71
2022/05/06 06:55:24;;;;;;;4.40;3.07;;;21.70;95.70;;;;;;5074774;28;20180;-69
2022/05/06 06:57:50;;;;;;;5.33;2.73;;;21.40;95.80;;;;;;5075045;28;21062;-71
2022/05/06 07:00:16;;;;;;;4.07;2.73;;;22.30;94.80;;;;;;5075283;28;20173;-70
2022/05/06 07:02:42;;;;;;;3.70;3.20;;;21.80;93.30;;;;;;5074679;28;20997;-71
2022/05/06 07:05:08;;;;;;;2.93;2.70;;;20.40;93.80;;;;;;5074660;28;20744;-71
2022/05/06 07:13:02;;;;;;;3.33;2.50;;;20.70;94.30;;;;;;5074677;28;20429;-71
2022/05/06 07:15:29;;;;;;;3.13;2.50;;;21.50;94.50;;;;;;5074637;28;20404;-71
2022/05/06 07:17:55;;;;;;;5.37;3.17;;;22.60;92.30;;;;;;5074473;28;20257;-69
2022/05/06 07:20:21;;;;;;;3.63;3.10;;;22.50;91.60;;;;;;5074490;28;20874;-70
2022/05/06 07:22:46;;;;;;;3.20;2.90;;;22.10;91.50;;;;;;5081207;28;20201;-70
2022/05/06 07:25:12;;;;;;;4.00;3.40;;;21.30;92.20;;;;;;5047971;28;20205;-70
2022/05/06 07:27:37;;;;;;;3.90;3.10;;;22.30;92.80;;;;;;5074489;28;20546;-71
2022/05/06 07:30:04;;;;;;;5.13;3.47;;;21.60;92.00;;;;;;5074316;28;20253;-69
2022/05/06 07:32:30;;;;;;;4.67;4.27;;;21.40;91.70;;;;;;5073969;28;20193;-71
2022/05/06 07:34:56;;;;;;;4.17;3.30;;;21.60;91.90;;;;;;5073961;28;20431;-72
2022/05/06 07:37:21;;;;;;;5.50;3.77;;;22.20;92.60;;;;;;5074123;28;20674;-71
2022/05/06 07:39:47;;;;;;;4.10;3.60;;;21.90;90.70;;;;;;5074063;28;20180;-72
2022/05/06 07:42:12;;;;;;;5.40;3.93;;;22.90;90.30;;;;;;5073983;28;20192;-72
2022/05/06 07:44:38;;;;;;;5.07;3.10;;;22.50;90.80;;;;;;5073971;28;20200;-72
2022/05/06 07:47:04;;;;;;;4.27;3.60;;;22.40;90.60;;;;;;5055623;28;20167;-72
2022/05/06 07:49:29;;;;;;;4.17;3.07;;;22.50;90.70;;;;;;5054049;28;20174;-69
2022/05/06 07:51:55;;;;;;;5.30;4.13;;;21.30;90.70;;;;;;5053923;28;20626;-69
2022/05/06 07:54:20;;;;;;;4.07;3.00;;;21.10;91.10;;;;;;5053851;28;20202;-70
2022/05/06 07:56:46;;;;;;;5.30;3.93;;;22.70;91.60;;;;;;5053927;28;20193;-69
2022/05/06 07:59:11;;;;;;;5.90;3.77;;;22.10;90.50;;;;;;5053912;28;20177;-70
2022/05/06 08:04:34;;;;;;;6.43;3.87;;;23.10;91.30;;;;;;5054215;28;20176;-73
2022/05/06 08:07:00;;;;;;;3.23;2.97;;;21.30;91.20;;;;;;5053378;28;20454;-76
2022/05/06 08:09:25;;;;;;;4.33;3.77;;;21.10;94.00;;;;;;5054753;28;20416;-74
2022/05/06 08:11:51;;;;;;;4.23;2.80;;;20.60;92.30;;;;;;5053801;28;20431;-74
2022/05/06 08:14:17;;;;;;;5.53;3.00;;;21.20;93.00;;;;;;5053777;28;20173;-72
2022/05/06 08:16:44;;;;;;;3.97;3.57;;;20.60;93.00;;;;;;5053961;28;20510;-72
2022/05/06 08:19:10;;;;;;;4.13;3.73;;;19.90;93.10;;;;;;5054066;28;20969;-73
2022/05/06 08:21:36;;;;;;;4.70;3.20;;;20.50;94.00;;;;;;5056740;28;20512;-74
2022/05/06 08:24:02;;;;;;;4.20;3.60;;;21.20;92.70;;;;;;5073468;28;20177;-71
2022/05/06 08:26:28;;;;;;;5.07;4.57;;;21.30;92.30;;;;;;5073483;28;20412;-72
2022/05/06 08:28:53;;;;;;;7.20;4.73;;;19.30;93.80;;;;;;5073464;28;20422;-75
2022/05/06 08:31:20;;;;;;;6.47;4.50;;;19.20;94.80;;;;;;5055306;28;20252;-73
2022/05/06 08:33:45;;;;;;;4.00;3.27;;;20.30;93.30;;;;;;5073418;28;20166;-72
2022/05/06 08:36:10;;;;;;;5.70;4.40;;;20.60;92.90;;;;;;5073173;28;20408;-73
2022/05/06 08:38:36;;;;;;;5.60;3.07;;;21.10;93.50;;;;;;5073174;28;20198;-71
2022/05/06 08:41:02;;;;;;;4.03;3.73;;;22.40;93.10;;;;;;5072999;28;20169;-70
2022/05/06 08:43:28;;;;;;;3.30;3.00;;;22.40;91.10;;;;;;5072864;28;20177;-71
2022/05/06 08:51:31;;;;;;;3.43;3.10;;;20.00;92.00;;;;;;5053032;28;20420;-72
2022/05/06 08:53:57;;;;;;;4.13;3.00;;;19.20;94.50;;;;;;5052931;28;20486;-74
2022/05/06 08:56:23;;;;;;;2.70;2.47;;;19.00;94.20;;;;;;5054289;28;20442;-72
2022/05/06 08:58:48;;;;;;;3.33;3.00;;;19.40;96.30;;;;;;5064706;28;20426;-73
2022/05/06 09:01:16;;;;;;;4.07;3.10;;;20.80;93.50;;;;;;5064645;28;20248;-73
2022/05/06 09:03:47;;;;;;;3.40;2.93;;;20.40;94.50;;;;;;5072965;28;20183;-71
2022/05/06 09:06:22;;;;;;;5.03;3.20;;;20.10;94.30;;;;;;5072818;28;20422;-71
2022/05/06 09:08:49;;;;;;;4.80;3.20;;;21.50;93.40;;;;;;5072703;28;20411;-71
2022/05/06 09:11:17;;;;;;;4.40;3.20;;;23.00;91.40;;;;;;5072865;28;20404;-72
2022/05/06 09:13:58;;;;;;;6.13;3.50;;;23.00;90.00;;;;;;5072663;28;20475;-70
2022/05/06 09:16:41;;;;;;;9.50;7.20;;;21.30;91.50;;;;;;5072334;28;20819;-69
2022/05/06 09:19:21;;;;;;;3.97;3.10;;;21.20;92.20;;;;;;5072414;28;20470;-70
2022/05/06 09:22:14;;;;;;;3.47;3.17;;;20.60;93.10;;;;;;5072087;28;20418;-70
2022/05/06 09:24:41;;;;;;;5.40;3.03;;;21.90;93.40;;;;;;5072064;28;20399;-70
2022/05/06 09:27:11;;;;;;;4.07;3.40;;;21.40;91.60;;;;;;5071964;28;20452;-70
2022/05/06 09:29:56;;;;;;;3.50;3.20;;;20.60;91.70;;;;;;5072053;28;20489;-70
2022/05/06 09:32:28;;;;;;;3.57;3.00;;;20.50;91.50;;;;;;5071981;28;20419;-70
2022/05/06 09:34:59;;;;;;;3.70;2.50;;;21.10;91.30;;;;;;5071829;28;20429;-70
2022/05/06 09:37:28;;;;;;;4.10;3.23;;;20.30;91.20;;;;;;5071990;28;20449;-70
2022/05/06 09:40:04;;;;;;;5.10;3.20;;;19.70;93.60;;;;;;5072042;28;20419;-71
2022/05/06 09:42:29;;;;;;;3.70;2.60;;;20.40;93.00;;;;;;5071795;28;20964;-69
2022/05/06 09:44:55;;;;;;;2.60;2.40;;;20.40;92.80;;;;;;5070779;28;20407;-71
2022/05/06 09:47:20;;;;;;;7.07;2.83;;;19.90;93.30;;;;;;5051922;28;20666;-69
2022/05/06 09:49:49;;;;;;;5.93;2.40;;;19.00;94.50;;;;;;5052055;28;20252;-70
2022/05/06 09:52:16;;;;;;;3.10;2.23;;;20.60;93.00;;;;;;5051662;28;20212;-69
2022/05/06 09:54:44;;;;;;;5.70;2.20;;;21.80;91.30;;;;;;5052140;28;20772;-70
2022/05/06 09:57:11;;;;;;;2.40;2.00;;;21.00;92.20;;;;;;5051667;28;20485;-71
2022/05/06 09:59:37;;;;;;;2.97;2.77;;;21.00;92.50;;;;;;5070089;28;20409;-68
2022/05/06 10:02:04;;;;;;;3.20;2.70;;;19.60;92.50;;;;;;5071661;28;20763;-69
2022/05/06 10:04:30;;;;;;;3.77;3.13;;;19.80;94.20;;;;;;5071598;28;20406;-69
2022/05/06 10:07:00;;;;;;;5.80;3.03;;;19.60;93.00;;;;;;5071546;28;20405;-70
2022/05/06 10:09:32;;;;;;;2.87;2.10;;;19.90;93.00;;;;;;5071687;28;20174;-70
2022/05/06 10:12:03;;;;;;;5.50;2.40;;;20.20;93.20;;;;;;5071489;28;20424;-72
2022/05/06 10:14:31;;;;;;;2.53;2.33;;;20.90;92.60;;;;;;5071620;28;20776;-72
2022/05/06 10:16:56;;;;;;;2.80;2.20;;;21.00;92.30;;;;;;5071701;28;20443;-70
2022/05/06 10:19:45;;;;;;;2.60;2.40;;;20.30;91.60;;;;;;5071493;28;20418;-70
2022/05/06 10:22:10;;;;;;;3.00;1.80;;;19.80;92.10;;;;;;5074647;28;20282;-70
2022/05/06 10:24:50;;;;;;;4.17;2.73;;;19.60;92.90;;;;;;5071453;28;20453;-70
2022/05/06 10:27:23;;;;;;;3.10;2.13;;;19.70;93.50;;;;;;5071528;28;20181;-70
2022/05/06 10:32:54;;;;;;;2.40;1.77;;;19.30;93.50;;;;;;5071376;28;20421;-70
2022/05/06 10:35:40;;;;;;;1.73;1.50;;;19.20;94.30;;;;;;5071103;28;20989;-70
2022/05/06 10:38:17;;;;;;;3.03;2.30;;;19.70;92.10;;;;;;5062778;28;20439;-71
2022/05/06 10:40:54;;;;;;;2.63;2.20;;;20.10;92.60;;;;;;5071467;28;20462;-71
2022/05/06 10:43:41;;;;;;;4.00;2.10;;;20.20;91.70;;;;;;5071353;28;20416;-72
2022/05/06 10:46:07;;;;;;;2.50;2.13;;;20.30;91.00;;;;;;5060678;28;20416;-72
2022/05/06 10:48:32;;;;;;;2.17;1.60;;;20.90;90.40;;;;;;5051458;28;20907;-72
2022/05/06 10:51:24;;;;;;;1.60;1.50;;;21.30;90.40;;;;;;5051479;28;20458;-72
2022/05/06 10:53:50;;;;;;;1.80;1.67;;;20.50;92.00;;;;;;5051413;28;20711;-72
2022/05/06 10:56:16;;;;;;;1.77;1.37;;;20.30;90.70;;;;;;5054598;28;20411;-72
2022/05/06 10:58:42;;;;;;;2.43;2.10;;;20.50;91.40;;;;;;5055030;28;20408;-72
2022/05/06 11:01:15;;;;;;;2.93;2.10;;;20.50;90.80;;;;;;5054730;28;20501;-72
2022/05/06 11:03:51;;;;;;;2.53;1.77;;;20.30;90.30;;;;;;5054929;28;20169;-71
2022/05/06 11:06:21;;;;;;;2.33;1.80;;;20.60;91.20;;;;;;5055067;28;20429;-72
2022/05/06 11:08:46;;;;;;;2.40;2.20;;;21.10;90.40;;;;;;5055105;28;20427;-73
2022/05/06 11:11:19;;;;;;;2.80;1.83;;;21.40;90.50;;;;;;5055053;28;20407;-72
2022/05/06 11:13:47;;;;;;;2.07;1.80;;;21.70;90.60;;;;;;5055076;28;20173;-72
2022/05/06 11:16:14;;;;;;;2.00;1.90;;;22.20;88.90;;;;;;5054723;28;20899;-73
2022/05/06 11:18:44;;;;;;;1.83;1.73;;;21.40;87.60;;;;;;5054755;28;20489;-72
2022/05/06 11:21:28;;;;;;;2.67;1.70;;;20.40;90.10;;;;;;5054621;28;20407;-74
2022/05/06 11:23:53;;;;;;;3.00;1.93;;;20.60;91.20;;;;;;5054726;28;20457;-73
2022/05/06 11:26:25;;;;;;;3.90;2.00;;;20.50;90.10;;;;;;5054502;28;20507;-73
2022/05/06 11:29:02;;;;;;;2.00;1.77;;;20.20;90.20;;;;;;5054990;28;20181;-74
2022/05/06 11:31:28;;;;;;;2.10;1.90;;;20.40;90.00;;;;;;5070701;28;20432;-74
2022/05/06 11:33:56;;;;;;;1.77;1.60;;;20.60;90.00;;;;;;5054792;28;20415;-74
2022/05/06 11:36:22;;;;;;;2.13;1.90;;;20.60;90.00;;;;;;5072371;28;20456;-74
2022/05/06 11:38:48;;;;;;;1.80;1.37;;;20.50;87.60;;;;;;5067145;28;20475;-74
2022/05/06 11:41:17;;;;;;;1.97;1.77;;;20.40;86.60;;;;;;5091358;28;20220;-74
2022/05/06 11:43:45;;;;;;;1.50;1.30;;;20.10;89.00;;;;;;5094814;28;20430;-74
2022/05/06 11:49:02;;;;;;;2.17;1.67;;;20.30;90.40;;;;;;5074456;28;20937;-74
2022/05/06 11:51:34;;;;;;;2.00;1.80;;;20.30;89.90;;;;;;5073873;28;20539;-74
2022/05/06 11:54:01;;;;;;;1.77;1.60;;;20.60;88.80;;;;;;5080175;22;20493;-70
2022/05/06 11:56:28;;;;;;;1.97;1.27;;;20.20;87.60;;;;;;5036203;28;20884;-72
2022/05/06 11:58:58;;;;;;;2.30;1.67;;;19.80;88.80;;;;;;5035083;28;20400;-70
2022/05/06 12:01:28;;;;;;;2.80;2.00;;;19.90;89.70;;;;;;5035195;28;20421;-70
2022/05/06 12:03:58;;;;;;;1.77;1.67;;;19.80;87.50;;;;;;5034848;28;20428;-69
2022/05/06 12:06:27;;;;;;;1.60;1.50;;;19.80;87.90;;;;;;5033198;28;20413;-69
2022/05/06 12:09:06;;;;;;;1.80;1.53;;;20.10;87.00;;;;;;5034180;28;20498;-69
2022/05/06 12:11:32;;;;;;;1.63;1.53;;;19.90;86.50;;;;;;5035520;28;20399;-72
2022/05/06 12:14:08;;;;;;;1.77;1.40;;;19.60;87.40;;;;;;5055291;28;21072;-70
2022/05/06 12:16:33;;;;;;;1.77;1.53;;;19.50;88.80;;;;;;5054603;28;20188;-69
2022/05/06 12:18:59;;;;;;;2.20;1.33;;;19.40;90.10;;;;;;5053382;28;20415;-69
2022/05/06 12:21:26;;;;;;;1.27;1.17;;;19.30;90.70;;;;;;5053594;28;20443;-70
2022/05/06 12:23:57;;;;;;;1.60;1.50;;;19.40;91.20;;;;;;5035783;28;20662;-70
2022/05/06 12:26:30;;;;;;;2.20;1.50;;;19.10;91.90;;;;;;5053668;28;20825;-70
2022/05/06 12:28:56;;;;;;;2.27;1.57;;;19.20;91.50;;;;;;5053912;28;20415;-70
2022/05/06 12:31:32;;;;;;;1.67;0.90;;;19.40;90.10;;;;;;5053560;28;20494;-70
2022/05/06 12:34:02;;;;;;;1.53;1.10;;;19.50;85.60;;;;;;5053581;28;20197;-70
2022/05/06 12:36:28;;;;;;;1.10;1.00;;;19.70;84.20;;;;;;5053123;28;20457;-70
2022/05/06 12:38:54;;;;;;;1.27;1.10;;;19.50;83.60;;;;;;5052918;28;20849;-70
2022/05/06 12:41:24;;;;;;;2.80;1.20;;;19.80;84.40;;;;;;5053408;28;20255;-70
2022/05/06 12:43:51;;;;;;;1.80;1.50;;;20.10;84.00;;;;;;5035393;28;20681;-69
2022/05/06 12:46:27;;;;;;;1.20;1.10;;;20.20;85.40;;;;;;5053685;28;20403;-69
2022/05/06 12:51:39;;;;;;;1.30;1.20;;;19.70;90.20;;;;;;5053212;28;20438;-70
2022/05/06 12:54:05;;;;;;;2.57;1.30;;;20.10;90.60;;;;;;5052770;28;20468;-70
2022/05/06 12:56:31;;;;;;;2.77;1.20;;;19.90;88.60;;;;;;5053114;28;20992;-69
2022/05/06 12:58:56;;;;;;;1.67;1.23;;;19.80;87.70;;;;;;5052969;28;20170;-69
2022/05/06 13:01:22;;;;;;;1.40;1.30;;;20.00;87.50;;;;;;5053063;28;20200;-69
2022/05/06 13:03:47;;;;;;;1.80;1.40;;;19.70;86.40;;;;;;5052749;28;20263;-70
2022/05/06 13:06:13;;;;;;;1.40;1.30;;;19.80;86.00;;;;;;5052926;28;20976;-70
2022/05/06 13:08:38;;;;;;;1.20;0.97;;;20.40;81.30;;;;;;5053086;28;20502;-70
2022/05/06 13:11:04;;;;;;;1.43;1.10;;;20.60;80.60;;;;;;5053031;28;20636;-70
2022/05/06 13:13:29;;;;;;;1.00;0.90;;;20.40;78.80;;;;;;5044127;28;20230;-69
2022/05/06 13:15:56;;;;;;;1.57;0.80;;;20.60;80.80;;;;;;5052745;28;20172;-70
2022/05/06 13:18:22;;;;;;;2.40;1.13;;;21.30;80.90;;;;;;5052584;28;20263;-69
2022/05/06 13:20:47;;;;;;;1.10;1.00;;;21.70;78.20;;;;;;5052586;28;20418;-69
2022/05/06 13:23:13;;;;;;;1.13;1.03;;;22.00;76.80;;;;;;5052257;28;20199;-69
2022/05/06 13:25:38;;;;;;;1.13;1.00;;;22.40;72.00;;;;;;5052971;28;20725;-69
2022/05/06 13:28:04;;;;;;;1.20;1.10;;;22.70;71.70;;;;;;5052966;28;20181;-70